Time;durP1;ratioP1;P1;durP2;ratioP2;P2;SDS_P1;SDS_P2;PMS_P1;PMS_P2;Temp;Humidity;BMP_temperature;BMP_pressure;BME280_temperature;BME280_humidity;BME280_pressure;Samples;Min_cycle;Max_cycle;Signal;HPM_P1;HPM_P2
2022/10/16 00:00:30;;;;;;;;;;;;;;;17.78;60.17;100164.09;4425069;32;19981;-95
2022/10/16 00:02:55;;;;;;;;;;;;;;;17.79;60.17;100166.66;4415407;32;20039;-94
2022/10/16 00:05:20;;;;;;;;;;;;;;;17.77;60.17;100170.31;4415357;32;20000;-94
2022/10/16 00:07:45;;;;;;;;;;;;;;;17.72;60.16;100167.06;4415100;32;20384;-95
2022/10/16 00:10:11;;;;;;;;;;;;;;;17.81;60.17;100165.72;4412560;32;21131;-95
2022/10/16 00:12:36;;;;;;;;;;;;;;;17.72;60.16;100164.41;4412007;32;20005;-94
2022/10/16 00:15:40;;;;;;;;;;;;;;;17.73;60.16;100163.50;4415168;32;19985;-94
2022/10/16 00:18:05;;;;;;;;;;;;;;;17.67;60.16;100164.69;4433772;32;19997;-94
2022/10/16 00:20:33;;;;;;;;;;;;;;;17.59;60.15;100168.63;4419880;32;20003;-95
2022/10/16 00:22:58;;;;;;;;;;;;;;;17.57;60.15;100163.47;4416210;32;19985;-95
2022/10/16 00:25:23;;;;;;;;;;;;;;;17.46;60.14;100171.06;4428600;32;20014;-94
2022/10/16 00:28:02;;;;;;;;;;;;;;;17.42;60.15;100167.75;4416807;32;20140;-95
2022/10/16 00:30:27;;;;;;;;;;;;;;;17.39;60.15;100164.44;4431015;32;19985;-96
2022/10/16 00:33:31;;;;;;;;;;;;;;;17.29;60.14;100179.87;4426650;32;20278;-93
2022/10/16 00:36:00;;;;;;;;;;;;;;;17.29;60.13;100169.34;4351329;32;20063;-93
2022/10/16 00:38:25;;;;;;;;;;;;;;;17.07;60.12;100190.66;4337346;32;20039;-91
2022/10/16 00:40:50;;;;;;;;;;;;;;;17.00;60.11;100193.69;4376561;32;20026;-95
2022/10/16 00:43:34;;;;;;;;;;;;;;;16.99;60.11;100184.94;4410950;32;20029;-92
2022/10/16 00:46:20;;;;;;;;;;;;;;;16.98;60.12;100180.59;4436068;32;19989;-94
2022/10/16 00:51:52;;;;;;;;;;;;;;;16.67;60.10;100185.72;4441233;32;20000;-94
2022/10/16 00:54:19;;;;;;;;;;;;;;;16.81;60.11;100183.28;4414251;32;19969;-94
2022/10/16 00:56:44;;;;;;;;;;;;;;;16.81;60.11;100199.03;4414482;32;20033;-94
2022/10/16 00:59:24;;;;;;;;;;;;;;;16.76;60.10;100193.16;4414657;32;19997;-93
2022/10/16 01:01:49;;;;;;;;;;;;;;;16.69;60.10;100194.38;4414016;32;20323;-94
2022/10/16 01:04:14;;;;;;;;;;;;;;;16.72;60.11;100207.38;4414430;32;19993;-94
2022/10/16 01:06:43;;;;;;;;;;;;;;;16.64;60.10;100202.47;4414494;32;19985;-94
2022/10/16 01:09:08;;;;;;;;;;;;;;;16.66;60.10;100205.91;4414062;32;20651;-94
2022/10/16 01:11:38;;;;;;;;;;;;;;;16.63;60.10;100213.06;4426780;32;19986;-93
2022/10/16 01:14:09;;;;;;;;;;;;;;;16.58;60.10;100205.41;4414581;32;19977;-94
2022/10/16 01:16:37;;;;;;;;;;;;;;;16.49;60.09;100205.84;4414321;32;19974;-94
2022/10/16 01:19:08;;;;;;;;;;;;;;;16.32;60.09;100208.44;4411456;32;19997;-93
2022/10/16 01:24:56;;;;;;;;;;;;;;;16.17;60.08;100220.56;4393027;32;20003;-94
2022/10/16 01:27:23;;;;;;;;;;;;;;;16.10;60.08;100221.78;4380658;32;19998;-92
2022/10/16 01:29:49;;;;;;;;;;;;;;;15.91;60.06;100224.41;4386420;32;20012;-93
2022/10/16 01:32:14;;;;;;;;;;;;;;;15.89;60.06;100224.47;4419497;32;20001;-94
2022/10/16 01:34:59;;;;;;;;;;;;;;;15.91;60.06;100230.50;4426675;32;20024;-94
2022/10/16 01:37:44;;;;;;;;;;;;;;;15.86;60.06;100229.00;4414410;32;19989;-92
2022/10/16 01:40:11;;;;;;;;;;;;;;;15.87;60.07;100221.06;4411298;32;20933;-93
2022/10/16 01:42:38;;;;;;;;;;;;;;;15.83;60.05;100227.34;4420923;32;20021;-94
2022/10/16 01:45:06;;;;;;;;;;;;;;;15.75;60.05;100226.00;4414654;32;19973;-94
2022/10/16 01:47:31;;;;;;;;;;;;;;;15.74;60.05;100233.03;4415145;32;19989;-93
2022/10/16 01:53:19;;;;;;;;;;;;;;;15.53;60.04;100236.59;4409300;32;19993;-96
2022/10/16 01:58:54;;;;;;;;;;;;;;;15.61;60.04;100237.13;4425541;32;19981;-94
2022/10/16 02:01:20;;;;;;;;;;;;;;;15.51;60.03;100244.53;4427172;32;20049;-95
2022/10/16 02:03:45;;;;;;;;;;;;;;;15.43;60.04;100240.56;4414132;32;20019;-95
2022/10/16 02:06:10;;;;;;;;;;;;;;;15.39;60.03;100245.09;4411736;32;20336;-95
2022/10/16 02:08:35;;;;;;;;;;;;;;;15.47;60.04;100242.97;4414289;32;20079;-96
2022/10/16 02:11:06;;;;;;;;;;;;;;;15.27;60.02;100250.84;4412466;32;20116;-96
2022/10/16 02:13:34;;;;;;;;;;;;;;;15.28;60.03;100249.94;4414649;32;19981;-95
2022/10/16 02:16:00;;;;;;;;;;;;;;;15.28;60.02;100245.53;4427578;32;20008;-94
2022/10/16 02:18:28;;;;;;;;;;;;;;;15.22;60.02;100252.81;4414508;32;20034;-95
2022/10/16 02:20:54;;;;;;;;;;;;;;;15.23;60.02;100259.78;4414852;32;19997;-95
2022/10/16 02:23:24;;;;;;;;;;;;;;;15.13;60.03;100253.19;4426674;32;19993;-94
2022/10/16 02:25:49;;;;;;;;;;;;;;;15.13;60.02;100253.19;4414240;32;20049;-93
2022/10/16 02:28:17;;;;;;;;;;;;;;;15.17;60.03;100258.28;4410923;32;21689;-95
2022/10/16 02:30:48;;;;;;;;;;;;;;;15.01;60.02;100252.81;4420810;32;20001;-96
2022/10/16 02:33:16;;;;;;;;;;;;;;;14.89;60.01;100255.94;4413573;32;20037;-95
2022/10/16 02:35:41;;;;;;;;;;;;;;;14.89;60.01;100261.19;4414094;32;20582;-94
2022/10/16 02:38:06;;;;;;;;;;;;;;;14.92;60.01;100261.09;4411557;32;20001;-93
2022/10/16 02:40:32;;;;;;;;;;;;;;;14.77;60.00;100271.34;4412592;32;19995;-96
2022/10/16 02:42:57;;;;;;;;;;;;;;;14.67;60.00;100269.09;4411965;32;19981;-95
2022/10/16 02:45:23;;;;;;;;;;;;;;;14.63;60.00;100274.50;4411024;32;19997;-95
2022/10/16 02:47:48;;;;;;;;;;;;;;;14.64;59.99;100277.06;4413904;32;20029;-95
2022/10/16 02:50:13;;;;;;;;;;;;;;;14.50;59.98;100274.16;4413844;32;20248;-95
2022/10/16 02:52:38;;;;;;;;;;;;;;;14.51;59.98;100275.00;4413233;32;20000;-94
2022/10/16 02:55:04;;;;;;;;;;;;;;;14.61;59.99;100265.84;4410944;32;21142;-95
2022/10/16 02:57:29;;;;;;;;;;;;;;;14.59;59.99;100271.16;4401410;32;19990;-95
2022/10/16 02:59:54;;;;;;;;;;;;;;;14.58;59.99;100274.69;4410790;32;19985;-94
2022/10/16 03:02:19;;;;;;;;;;;;;;;14.45;59.98;100275.25;4409382;32;20039;-93
2022/10/16 03:04:45;;;;;;;;;;;;;;;14.50;59.98;100279.41;4412466;32;19997;-92
2022/10/16 03:07:10;;;;;;;;;;;;;;;14.51;59.99;100280.25;4408541;32;19993;-95
2022/10/16 03:09:38;;;;;;;;;;;;;;;14.41;59.98;100277.09;4413623;32;20029;-96
2022/10/16 03:12:03;;;;;;;;;;;;;;;14.36;59.98;100276.41;4401611;32;20000;-95
2022/10/16 03:14:28;;;;;;;;;;;;;;;14.24;59.96;100277.75;4415019;32;20355;-95
2022/10/16 03:16:53;;;;;;;;;;;;;;;14.21;59.97;100285.75;4416797;32;20019;-94
2022/10/16 03:19:19;;;;;;;;;;;;;;;14.24;59.96;100275.16;4423763;32;20552;-94
2022/10/16 03:21:44;;;;;;;;;;;;;;;14.13;59.96;100293.00;4413554;32;20004;-92
2022/10/16 03:24:09;;;;;;;;;;;;;;;14.10;59.97;100295.75;4412906;32;20008;-92
2022/10/16 03:26:35;;;;;;;;;;;;;;;14.05;59.96;100292.47;4412535;32;22642;-93
2022/10/16 03:29:02;;;;;;;;;;;;;;;14.09;59.96;100294.03;4412996;32;20001;-94
2022/10/16 03:31:27;;;;;;;;;;;;;;;14.03;59.96;100297.75;4413050;32;19978;-93
2022/10/16 03:33:52;;;;;;;;;;;;;;;14.00;59.95;100299.62;4412638;32;19989;-94
2022/10/16 03:36:17;;;;;;;;;;;;;;;13.87;59.94;100308.84;4412515;32;20017;-92
2022/10/16 03:38:43;;;;;;;;;;;;;;;13.95;59.96;100306.78;4412471;32;22378;-94
2022/10/16 03:41:08;;;;;;;;;;;;;;;13.87;59.94;100308.84;4412948;32;19986;-94
2022/10/16 03:43:33;;;;;;;;;;;;;;;13.95;59.96;100305.03;4413338;32;20024;-94
2022/10/16 03:45:59;;;;;;;;;;;;;;;13.91;59.96;100299.97;4412496;32;20002;-92
2022/10/16 03:48:24;;;;;;;;;;;;;;;13.74;59.94;100308.44;4411197;32;21793;-92
2022/10/16 03:50:50;;;;;;;;;;;;;;;13.57;59.94;100314.28;4411614;32;20024;-92
2022/10/16 03:53:15;;;;;;;;;;;;;;;13.64;59.94;100313.12;4408836;32;20539;-91
2022/10/16 03:55:41;;;;;;;;;;;;;;;13.58;59.94;100320.34;4411343;32;20037;-91
2022/10/16 03:58:06;;;;;;;;;;;;;;;13.62;59.93;100321.94;4398910;32;20033;-92
2022/10/16 04:00:31;;;;;;;;;;;;;;;13.77;59.94;100319.66;4411196;32;20027;-93
2022/10/16 04:03:04;;;;;;;;;;;;;;;13.70;59.94;100323.38;4412300;32;20123;-92
2022/10/16 04:05:29;;;;;;;;;;;;;;;13.77;59.94;100321.41;4406524;32;20576;-90
2022/10/16 04:07:55;;;;;;;;;;;;;;;13.72;59.93;100320.69;4398434;32;21253;-90
2022/10/16 04:10:20;;;;;;;;;;;;;;;13.63;59.93;100334.97;4398426;32;20370;-90
2022/10/16 04:12:45;;;;;;;;;;;;;;;13.71;59.94;100334.69;4410654;32;27520;-92
2022/10/16 04:15:10;;;;;;;;;;;;;;;13.64;59.94;100336.69;4397553;32;31660;-90
2022/10/16 04:17:35;;;;;;;;;;;;;;;13.55;59.93;100342.25;4398261;32;32430;-92
2022/10/16 04:20:01;;;;;;;;;;;;;;;13.48;59.92;100335.50;4411924;32;19994;-92
2022/10/16 04:22:26;;;;;;;;;;;;;;;13.52;59.93;100329.28;4399171;32;20055;-92
2022/10/16 04:24:51;;;;;;;;;;;;;;;13.43;59.93;100335.66;4411964;32;20037;-91
2022/10/16 04:27:17;;;;;;;;;;;;;;;13.29;59.92;100334.44;4411349;32;21998;-91
2022/10/16 04:29:42;;;;;;;;;;;;;;;13.19;59.92;100337.34;4411697;32;20270;-91
2022/10/16 04:32:08;;;;;;;;;;;;;;;13.24;59.91;100338.94;4411791;32;19982;-92
2022/10/16 04:34:33;;;;;;;;;;;;;;;13.15;59.91;100338.31;4399192;32;19986;-91
2022/10/16 04:36:58;;;;;;;;;;;;;;;13.13;59.91;100334.91;4412202;32;19977;-91
2022/10/16 04:39:24;;;;;;;;;;;;;;;13.08;59.90;100336.81;4412993;32;20312;-90
2022/10/16 04:41:49;;;;;;;;;;;;;;;12.96;59.89;100333.75;4418853;32;20039;-92
2022/10/16 04:44:14;;;;;;;;;;;;;;;12.79;59.89;100329.94;4411398;32;20031;-91
2022/10/16 04:46:39;;;;;;;;;;;;;;;12.79;59.89;100336.91;4411478;32;19998;-92
2022/10/16 04:49:05;;;;;;;;;;;;;;;12.90;59.90;100347.88;4411300;32;19978;-90
2022/10/16 04:51:30;;;;;;;;;;;;;;;12.92;59.90;100343.44;4411447;32;20016;-89
2022/10/16 04:53:55;;;;;;;;;;;;;;;12.86;59.90;100351.47;4411050;32;20014;-90
2022/10/16 04:56:21;;;;;;;;;;;;;;;12.91;59.90;100345.19;4410913;32;19986;-90
2022/10/16 04:58:46;;;;;;;;;;;;;;;12.98;59.90;100351.06;4410746;32;20005;-91
2022/10/16 05:04:44;;;;;;;;;;;;;;;13.09;59.90;100348.13;4348458;33;20097;-94
2022/10/16 05:07:40;;;;;;;;;;;;;;;13.05;59.91;100350.00;4348711;32;20010;-93
2022/10/16 05:10:22;;;;;;;;;;;;;;;13.00;59.90;100349.28;4373289;32;20137;-95
2022/10/16 05:12:48;;;;;;;;;;;;;;;12.97;59.90;100348.50;4394337;32;20056;-92
2022/10/16 05:15:13;;;;;;;;;;;;;;;12.97;59.90;100351.97;4383175;32;20033;-91
2022/10/16 05:20:32;;;;;;;;;;;;;;;12.97;59.90;100361.59;4379851;32;20335;-95
2022/10/16 17:01:09;;;;;;;;;;;;;;;18.52;60.21;100661.72;5053850;27;19975;-94
2022/10/16 17:06:27;;;;;;;;;;;;;;;18.39;60.21;100661.44;4501315;27;19990;-93
2022/10/16 17:19:14;;;;;;;;;;;;;;;17.63;60.16;100694.06;4436107;27;20037;-91
2022/10/16 17:21:39;;;;;;;;;;;;;;;17.47;60.16;100697.41;4378310;32;19999;-93
2022/10/16 17:24:04;;;;;;;;;;;;;;;17.37;60.14;100709.28;4381115;32;20322;-90
2022/10/16 17:30:55;;;;;;;;;;;;;;;17.31;60.15;100717.44;4381634;32;20150;-94
2022/10/16 17:32:55;;;;;;;;;;;;;;;17.34;60.15;100713.81;4319141;28;20650;-91
2022/10/16 17:35:20;;;;;;;;;;;;;;;17.16;60.14;100716.34;4298188;33;21560;-95
2022/10/16 17:37:46;;;;;;;;;;;;;;;17.04;60.13;100721.28;4292725;33;20418;-88
2022/10/16 17:40:11;;;;;;;;;;;;;;;16.90;60.12;100719.25;4315471;33;24098;-88
2022/10/16 17:42:36;;;;;;;;;;;;;;;16.67;60.10;100724.63;4339458;32;20085;-88
2022/10/16 17:45:01;;;;;;;;;;;;;;;16.66;60.11;100726.38;4363088;32;25056;-89
2022/10/16 17:47:27;;;;;;;;;;;;;;;16.60;60.10;100737.12;4351571;32;20389;-88
2022/10/16 17:49:52;;;;;;;;;;;;;;;16.67;60.10;100743.00;4363880;32;20363;-90
2022/10/16 17:52:17;;;;;;;;;;;;;;;16.57;60.11;100742.50;4351004;32;34675;-89
2022/10/16 17:54:43;;;;;;;;;;;;;;;16.48;60.09;100743.72;4363242;32;29276;-88
2022/10/16 17:57:08;;;;;;;;;;;;;;;16.36;60.09;100744.25;4344675;32;20026;-87
2022/10/16 17:59:33;;;;;;;;;;;;;;;16.14;60.08;100753.88;4350375;32;20704;-90
2022/10/16 18:01:58;;;;;;;;;;;;;;;16.02;60.08;100754.34;4348841;32;20372;-90
2022/10/16 18:04:24;;;;;;;;;;;;;;;16.03;60.07;100756.91;4336729;32;19999;-88
2022/10/16 18:06:49;;;;;;;;;;;;;;;15.95;60.07;100751.94;4335623;32;37435;-88
2022/10/16 18:09:16;;;;;;;;;;;;;;;15.84;60.06;100761.12;4346489;32;20007;-89
2022/10/16 18:11:42;;;;;;;;;;;;;;;15.70;60.06;100756.41;4329150;32;19974;-89
2022/10/16 18:14:07;;;;;;;;;;;;;;;15.87;60.06;100758.41;4336450;32;20043;-91
2022/10/16 18:16:35;;;;;;;;;;;;;;;15.78;60.05;100756.13;4336667;32;19979;-88
2022/10/16 18:19:00;;;;;;;;;;;;;;;15.79;60.06;100760.47;4336519;32;20002;-88
2022/10/16 18:21:26;;;;;;;;;;;;;;;15.75;60.06;100757.09;4335927;32;26927;-88
2022/10/16 18:23:51;;;;;;;;;;;;;;;15.83;60.06;100762.03;4336845;32;20006;-89
2022/10/16 18:26:16;;;;;;;;;;;;;;;15.74;60.06;100758.00;4349258;32;20086;-89
2022/10/16 18:28:42;;;;;;;;;;;;;;;15.58;60.04;100764.69;4345839;33;19983;-89
2022/10/16 18:31:12;;;;;;;;;;;;;;;15.52;60.04;100772.78;4336954;32;20054;-90
2022/10/16 18:33:37;;;;;;;;;;;;;;;15.63;60.05;100760.19;4349827;32;20002;-89
2022/10/16 18:36:04;;;;;;;;;;;;;;;15.47;60.05;100772.97;4363695;32;19995;-89
2022/10/16 18:38:31;;;;;;;;;;;;;;;15.58;60.05;100773.44;4352650;32;20023;-89
2022/10/16 18:40:56;;;;;;;;;;;;;;;15.43;60.04;100774.00;4337808;32;20061;-89
2022/10/16 18:43:30;;;;;;;;;;;;;;;15.48;60.04;100776.44;4362429;32;19994;-89
2022/10/16 18:46:16;;;;;;;;;;;;;;;15.31;60.04;100774.41;4336820;32;19994;-89
2022/10/16 18:48:41;;;;;;;;;;;;;;;15.25;60.03;100774.62;4348279;32;20014;-88
2022/10/16 18:51:08;;;;;;;;;;;;;;;15.31;60.04;100779.66;4344188;33;20023;-87
2022/10/16 18:53:33;;;;;;;;;;;;;;;15.23;60.02;100777.31;4323601;32;19987;-88
2022/10/16 18:55:59;;;;;;;;;;;;;;;15.20;60.02;100779.19;4348734;32;19975;-88
2022/10/16 18:58:24;;;;;;;;;;;;;;;15.20;60.03;100787.06;4348035;32;20325;-89
2022/10/16 19:00:49;;;;;;;;;;;;;;;15.23;60.02;100779.06;4336205;32;20026;-89
2022/10/16 19:03:14;;;;;;;;;;;;;;;15.21;60.02;100788.75;4362236;32;20009;-89
2022/10/16 19:05:39;;;;;;;;;;;;;;;15.00;60.01;100783.34;4336107;32;20035;-90
2022/10/16 19:08:05;;;;;;;;;;;;;;;15.11;60.02;100785.59;4348497;32;20227;-89
2022/10/16 19:10:30;;;;;;;;;;;;;;;15.20;60.02;100787.06;4320901;33;29541;-89
2022/10/16 19:12:55;;;;;;;;;;;;;;;15.22;60.02;100793.97;4336446;32;25236;-89
2022/10/16 19:15:21;;;;;;;;;;;;;;;15.25;60.03;100793.00;4338688;33;34853;-88
2022/10/16 19:17:46;;;;;;;;;;;;;;;15.18;60.03;100797.59;4335099;32;19986;-88
2022/10/16 19:20:12;;;;;;;;;;;;;;;15.03;60.02;100798.97;4348023;32;20360;-89
2022/10/16 19:22:51;;;;;;;;;;;;;;;15.01;60.02;100798.16;4347224;32;33289;-91
2022/10/16 19:25:18;;;;;;;;;;;;;;;14.94;60.00;100793.19;4349427;32;20038;-89
2022/10/16 19:27:44;;;;;;;;;;;;;;;14.76;60.00;100805.12;4335667;32;20067;-89
2022/10/16 19:30:09;;;;;;;;;;;;;;;14.69;59.99;100804.47;4348102;32;20348;-88
2022/10/16 19:32:37;;;;;;;;;;;;;;;14.75;60.00;100806.03;4347641;32;20026;-88
2022/10/16 19:35:03;;;;;;;;;;;;;;;14.88;60.01;100798.59;4362871;32;19994;-88
2022/10/16 19:37:29;;;;;;;;;;;;;;;14.73;60.00;100799.97;4328991;33;19998;-89
2022/10/16 19:39:54;;;;;;;;;;;;;;;14.82;60.00;100807.53;4331764;33;38106;-90
2022/10/16 19:42:20;;;;;;;;;;;;;;;14.70;60.00;100814.03;4339921;32;20015;-89
2022/10/16 19:44:45;;;;;;;;;;;;;;;14.73;60.00;100818.31;4347488;32;19982;-89
2022/10/16 19:47:14;;;;;;;;;;;;;;;14.57;59.99;100820.56;4349270;32;20298;-90
2022/10/16 19:49:39;;;;;;;;;;;;;;;14.87;60.01;100821.34;4363470;32;20351;-88
2022/10/16 19:52:05;;;;;;;;;;;;;;;14.84;60.00;100823.22;4350061;32;20006;-89
2022/10/16 19:54:30;;;;;;;;;;;;;;;14.76;60.00;100830.47;4363501;32;19999;-89
2022/10/16 19:56:58;;;;;;;;;;;;;;;14.74;60.00;100826.16;4349869;32;20005;-88
2022/10/16 19:59:24;;;;;;;;;;;;;;;14.48;59.98;100827.88;4350902;32;20005;-87
2022/10/16 20:01:52;;;;;;;;;;;;;;;14.35;59.98;100828.19;4338990;32;19983;-89
2022/10/16 20:04:17;;;;;;;;;;;;;;;14.29;59.98;100830.16;4351247;32;20083;-90
2022/10/16 20:06:43;;;;;;;;;;;;;;;14.22;59.97;100839.09;4350978;32;20002;-89
2022/10/16 20:09:08;;;;;;;;;;;;;;;14.09;59.97;100839.44;4325864;32;20297;-88
2022/10/16 20:11:34;;;;;;;;;;;;;;;14.09;59.96;100843.81;4328256;32;34624;-89
2022/10/16 20:14:00;;;;;;;;;;;;;;;14.09;59.96;100846.44;4349737;32;20018;-87
2022/10/16 20:16:26;;;;;;;;;;;;;;;14.07;59.96;100856.09;4339332;32;20301;-89
2022/10/16 20:18:51;;;;;;;;;;;;;;;14.07;59.96;100859.59;4337198;32;20340;-89
2022/10/16 20:21:26;;;;;;;;;;;;;;;14.03;59.96;100859.72;4349516;32;20073;-88
2022/10/16 20:23:52;;;;;;;;;;;;;;;14.07;59.96;100877.03;4337155;32;19998;-91
2022/10/16 20:26:18;;;;;;;;;;;;;;;13.84;59.95;100869.84;4337290;32;20383;-90
2022/10/16 20:28:44;;;;;;;;;;;;;;;13.90;59.96;100874.91;4349623;32;20013;-88
2022/10/16 20:31:12;;;;;;;;;;;;;;;13.95;59.96;100882.62;4349645;32;19995;-88
2022/10/16 20:33:41;;;;;;;;;;;;;;;13.86;59.94;100885.50;4337529;32;19990;-88
2022/10/16 20:36:09;;;;;;;;;;;;;;;13.78;59.94;100885.72;4334363;32;19984;-88
2022/10/16 20:38:35;;;;;;;;;;;;;;;13.72;59.94;100891.97;4349427;32;19995;-89
2022/10/16 20:41:01;;;;;;;;;;;;;;;13.86;59.95;100895.97;4363248;32;19991;-89
2022/10/16 20:43:26;;;;;;;;;;;;;;;13.59;59.94;100906.28;4349536;32;19975;-88
2022/10/16 20:45:57;;;;;;;;;;;;;;;13.62;59.93;100906.19;4348861;32;32849;-89
2022/10/16 20:48:23;;;;;;;;;;;;;;;13.56;59.93;100914.19;4349567;32;19983;-88
2022/10/16 20:50:48;;;;;;;;;;;;;;;13.64;59.95;100911.37;4336936;32;20069;-87
2022/10/16 20:53:13;;;;;;;;;;;;;;;13.53;59.93;100909.06;4336482;32;20002;-89
2022/10/16 20:55:38;;;;;;;;;;;;;;;13.64;59.95;100907.00;4343747;33;34167;-89
2022/10/16 20:58:04;;;;;;;;;;;;;;;13.60;59.93;100908.00;4344200;32;20015;-89
2022/10/16 21:00:29;;;;;;;;;;;;;;;13.42;59.93;100917.16;4349426;32;19994;-89
2022/10/16 21:02:56;;;;;;;;;;;;;;;13.59;59.94;100915.88;4349222;32;20022;-89
2022/10/16 21:05:21;;;;;;;;;;;;;;;13.49;59.93;100920.50;4336989;32;19979;-88
2022/10/16 21:07:46;;;;;;;;;;;;;;;13.54;59.93;100920.38;4336865;32;19991;-89
2022/10/16 21:10:15;;;;;;;;;;;;;;;13.48;59.93;100918.75;4338634;33;20024;-89
2022/10/16 21:12:40;;;;;;;;;;;;;;;13.49;59.93;100923.97;4347408;32;19998;-88
2022/10/16 21:15:08;;;;;;;;;;;;;;;13.56;59.93;100923.81;4336480;32;27603;-88
2022/10/16 21:17:33;;;;;;;;;;;;;;;13.52;59.94;100923.88;4349237;32;20332;-88
2022/10/16 21:19:58;;;;;;;;;;;;;;;13.54;59.93;100933.44;4335989;32;31720;-87
2022/10/16 21:22:27;;;;;;;;;;;;;;;13.49;59.93;100930.97;4335772;32;21794;-87
2022/10/16 21:24:53;;;;;;;;;;;;;;;13.46;59.92;100936.25;4349176;32;20379;-88
2022/10/16 21:27:18;;;;;;;;;;;;;;;13.52;59.93;100941.34;4344659;33;20000;-89
2022/10/16 21:29:43;;;;;;;;;;;;;;;13.60;59.93;100934.16;4334851;32;34463;-89
2022/10/16 21:32:08;;;;;;;;;;;;;;;13.42;59.93;100939.84;4337266;32;20013;-89
2022/10/16 21:34:34;;;;;;;;;;;;;;;13.45;59.93;100932.75;4347926;32;25215;-88
2022/10/16 21:36:59;;;;;;;;;;;;;;;13.21;59.92;100939.44;4341316;32;19999;-89
2022/10/16 21:39:25;;;;;;;;;;;;;;;13.20;59.92;100940.34;4349435;32;20019;-88
2022/10/16 21:41:50;;;;;;;;;;;;;;;13.46;59.93;100936.25;4345296;33;20318;-89
2022/10/16 21:44:16;;;;;;;;;;;;;;;13.45;59.93;100939.75;4334737;33;20536;-88
2022/10/16 21:46:42;;;;;;;;;;;;;;;13.40;59.92;100936.41;4299401;32;1224518;-88
2022/10/16 21:49:09;;;;;;;;;;;;;;;13.38;59.92;100928.59;4349416;32;20329;-86
2022/10/16 21:51:35;;;;;;;;;;;;;;;13.47;59.92;100932.72;4346477;32;19999;-86
2022/10/16 21:54:01;;;;;;;;;;;;;;;13.35;59.92;100940.88;4349558;32;19987;-87
2022/10/16 21:56:26;;;;;;;;;;;;;;;13.21;59.91;100939.44;4349337;32;19987;-87
2022/10/16 21:58:51;;;;;;;;;;;;;;;13.16;59.90;100943.03;4348238;32;34521;-89
2022/10/16 22:01:18;;;;;;;;;;;;;;;13.01;59.90;100938.16;4336641;32;22387;-87
2022/10/16 22:03:43;;;;;;;;;;;;;;;12.99;59.90;100938.19;4336756;32;20312;-89
2022/10/16 22:06:08;;;;;;;;;;;;;;;13.17;59.91;100945.66;4349147;32;19990;-89
2022/10/16 22:08:34;;;;;;;;;;;;;;;13.16;59.91;100946.53;4362160;32;20269;-89
2022/10/16 22:11:18;;;;;;;;;;;;;;;13.46;59.92;100939.72;4349130;32;19979;-87
2022/10/16 22:13:43;;;;;;;;;;;;;;;13.02;59.90;100951.22;4349379;32;19967;-89
2022/10/16 22:16:09;;;;;;;;;;;;;;;12.99;59.90;100956.50;4336682;32;20288;-88
2022/10/16 22:18:37;;;;;;;;;;;;;;;12.95;59.90;100954.00;4336889;32;20003;-88
2022/10/16 22:21:04;;;;;;;;;;;;;;;12.90;59.90;100960.19;4349052;32;19995;-87
2022/10/16 22:23:29;;;;;;;;;;;;;;;12.84;59.89;100956.84;4362633;32;19990;-89
2022/10/16 22:26:01;;;;;;;;;;;;;;;12.76;59.89;100959.63;4336019;32;25101;-90
2022/10/16 22:28:26;;;;;;;;;;;;;;;12.81;59.88;100959.53;4348906;32;20026;-88
2022/10/16 22:30:51;;;;;;;;;;;;;;;12.69;59.89;100967.62;4336418;32;19995;-89
2022/10/16 22:33:19;;;;;;;;;;;;;;;12.78;59.89;100962.22;4348541;32;20038;-88
2022/10/16 22:35:44;;;;;;;;;;;;;;;12.70;59.88;100962.37;4348698;32;20009;-88
2022/10/16 22:38:10;;;;;;;;;;;;;;;12.74;59.90;100966.63;4335678;32;32056;-88
2022/10/16 22:40:35;;;;;;;;;;;;;;;12.66;59.89;100963.34;4362337;32;20323;-88
2022/10/16 22:43:03;;;;;;;;;;;;;;;12.59;59.88;100972.19;4336112;32;19979;-88
2022/10/16 22:45:32;;;;;;;;;;;;;;;12.82;59.89;100971.72;4336447;32;20377;-88
2022/10/16 22:47:57;;;;;;;;;;;;;;;12.58;59.88;100967.88;4348609;32;20006;-88
2022/10/16 22:50:25;;;;;;;;;;;;;;;12.70;59.88;100969.34;4347529;32;30627;-85
2022/10/16 22:52:50;;;;;;;;;;;;;;;12.66;59.88;100975.53;4361023;32;20328;-88
2022/10/16 22:55:15;;;;;;;;;;;;;;;12.57;59.87;100974.00;4322523;33;36596;-88
2022/10/16 22:57:41;;;;;;;;;;;;;;;12.57;59.88;100974.84;4340561;32;36282;-90
2022/10/16 23:00:06;;;;;;;;;;;;;;;12.52;59.88;100968.84;4349111;32;28724;-92
2022/10/16 23:02:31;;;;;;;;;;;;;;;12.63;59.88;100978.22;4334395;33;19987;-90
2022/10/16 23:04:57;;;;;;;;;;;;;;;12.48;59.87;100987.22;4347616;32;20048;-92
2022/10/16 23:07:22;;;;;;;;;;;;;;;12.53;59.88;100988.84;4338992;33;32522;-91
2022/10/16 23:09:47;;;;;;;;;;;;;;;12.43;59.86;100989.91;4314085;33;20286;-92
2022/10/16 23:12:12;;;;;;;;;;;;;;;12.54;59.88;100987.97;4331954;32;19999;-92
2022/10/16 23:14:38;;;;;;;;;;;;;;;12.54;59.88;100992.34;4336509;32;29609;-92
2022/10/16 23:17:03;;;;;;;;;;;;;;;12.49;59.87;100997.62;4338688;33;19991;-91
2022/10/16 23:19:28;;;;;;;;;;;;;;;12.65;59.88;100999.94;4335203;32;22689;-92
2022/10/16 23:21:53;;;;;;;;;;;;;;;12.73;59.89;101000.63;4339286;32;19987;-92
2022/10/16 23:24:18;;;;;;;;;;;;;;;12.55;59.88;101007.13;4338932;32;32092;-92
2022/10/16 23:26:44;;;;;;;;;;;;;;;12.38;59.86;101007.44;4338922;32;28508;-92
2022/10/16 23:29:09;;;;;;;;;;;;;;;12.34;59.86;101004.91;4351749;32;23318;-91
2022/10/16 23:31:34;;;;;;;;;;;;;;;12.53;59.87;101001.88;4339827;32;20360;-91
2022/10/16 23:34:00;;;;;;;;;;;;;;;12.41;59.86;101007.38;4339233;32;32937;-92
2022/10/16 23:36:26;;;;;;;;;;;;;;;12.43;59.86;101000.38;4340102;32;19967;-92
2022/10/16 23:38:51;;;;;;;;;;;;;;;12.24;59.86;101012.91;4340084;32;19974;-93
2022/10/16 23:41:16;;;;;;;;;;;;;;;12.22;59.86;101011.22;4340150;32;20297;-93
2022/10/16 23:43:42;;;;;;;;;;;;;;;12.17;59.86;101021.75;4339586;32;20018;-93
2022/10/16 23:46:07;;;;;;;;;;;;;;;12.30;59.87;101019.75;4339383;32;38624;-92
2022/10/16 23:48:33;;;;;;;;;;;;;;;12.59;59.88;101021.81;4339919;32;19999;-92
2022/10/16 23:50:58;;;;;;;;;;;;;;;12.19;59.85;101022.56;4339916;32;20001;-92
2022/10/16 23:53:23;;;;;;;;;;;;;;;11.99;59.85;101024.69;4339648;32;20010;-91
2022/10/16 23:55:49;;;;;;;;;;;;;;;12.11;59.85;101016.66;4339478;32;19999;-90
2022/10/16 23:58:14;;;;;;;;;;;;;;;12.19;59.85;101019.09;4338412;32;28077;-90
